Terminal Aerodrome Forecast
Issued by NWS Lake Charles, LA

Home | Current Version | Previous Version | Text Only | Print | Product List | Glossary On
Versions: 1 2 3 4 5 6 7 8 9 10 11 12 13 14 15 16 17 18 19 20 21 22 23 24 25 26 27 28 29
000
FTUS44 KLCH 211136 AAA
TAFAEX
TAF AMD
KAEX 211136Z 2112/2212 23007KT P6SM VCSH SCT008 OVC015
      TEMPO 2112/2115 3SM BR OVC008
     FM211500 27005KT P6SM VCSH OVC025
     FM211800 30008KT P6SM BKN050
     FM220200 VRB03KT 4SM BR BKN008
      TEMPO 2208/2212 1SM BR OVC004=

USA.gov is the U.S. government's official web portal to all federal, state and local government web resources and services.